createdAt,value
2019-05-02T04:00:34.978Z,53.33
2019-05-02T04:02:34.954Z,53.43
2019-05-02T04:04:34.948Z,53.09
2019-05-02T04:06:34.911Z,53.50
2019-05-02T04:08:34.899Z,53.07
2019-05-02T04:10:34.912Z,53.07
2019-05-02T04:12:34.847Z,53.45
2019-05-02T04:14:38.092Z,53.35
2019-05-02T04:16:34.815Z,53.56
2019-05-02T04:18:34.807Z,53.02
2019-05-02T04:20:34.756Z,52.81
2019-05-02T04:22:34.748Z,53.02
2019-05-02T04:24:34.766Z,52.92
2019-05-02T04:26:34.695Z,53.00
2019-05-02T04:28:34.683Z,52.79
2019-05-02T04:30:34.700Z,52.48
2019-05-02T04:32:34.630Z,51.56
2019-05-02T04:34:34.631Z,52.25
2019-05-02T04:36:34.598Z,52.04
2019-05-02T04:38:44.384Z,52.04
2019-05-02T04:40:41.801Z,51.84
2019-05-02T04:42:35.524Z,52.04
2019-05-02T04:44:40.870Z,52.02
2019-05-02T04:46:38.589Z,51.82
2019-05-02T04:48:39.928Z,52.12
2019-05-02T04:50:37.673Z,51.59
2019-05-02T04:52:38.494Z,51.10
2019-05-02T04:54:38.047Z,51.39
2019-05-02T04:56:39.735Z,51.39
2019-05-02T04:58:37.924Z,51.46
2019-05-02T05:00:35.339Z,51.26
2019-05-02T05:02:37.315Z,50.74
2019-05-02T05:04:41.990Z,51.03
2019-05-02T05:06:35.258Z,51.13
2019-05-02T05:08:34.300Z,50.80
2019-05-02T05:10:40.179Z,51.51
2019-05-02T05:12:39.991Z,51.01
2019-05-02T05:14:40.631Z,50.90
2019-05-02T05:16:37.323Z,50.26
2019-05-02T05:18:34.175Z,49.85
2019-05-02T05:20:34.135Z,50.26
2019-05-02T05:22:41.530Z,50.57
2019-05-02T05:24:38.525Z,51.08
2019-05-02T05:26:39.109Z,50.75
2019-05-02T05:28:39.506Z,49.63
2019-05-02T05:30:37.696Z,49.73
2019-05-02T05:32:35.104Z,49.63
2019-05-02T05:34:34.023Z,50.42
2019-05-02T05:36:34.200Z,49.81
2019-05-02T05:38:36.020Z,49.79
2019-05-02T05:40:33.997Z,49.38
2019-05-02T05:42:33.937Z,49.48
2019-05-02T05:44:33.922Z,49.99
2019-05-02T05:46:40.594Z,49.35
2019-05-02T05:48:37.212Z,48.82
2019-05-02T05:50:37.688Z,49.74
2019-05-02T05:52:38.653Z,49.33
2019-05-02T05:54:38.382Z,49.66
2019-05-02T05:56:39.751Z,49.33
2019-05-02T05:58:39.752Z,50.25
2019-05-02T06:00:34.712Z,49.95
2019-05-02T06:02:49.758Z,49.13
2019-05-02T06:04:34.731Z,49.54
2019-05-02T06:06:33.664Z,49.30
2019-05-02T06:08:33.621Z,49.71
2019-05-02T06:10:33.583Z,49.10
2019-05-02T06:12:35.628Z,48.98
2019-05-02T06:14:34.651Z,48.88
2019-05-02T06:16:35.330Z,48.67
2019-05-02T06:18:36.256Z,49.05
2019-05-02T06:20:34.493Z,49.05
2019-05-02T06:22:33.474Z,48.83
2019-05-02T06:24:33.972Z,48.85
2019-05-02T06:26:33.409Z,48.63
2019-05-02T06:28:36.182Z,48.65
2019-05-02T06:30:34.366Z,48.83
2019-05-02T06:32:33.411Z,49.34
2019-05-02T06:34:33.330Z,48.93
2019-05-02T06:36:36.930Z,48.73
2019-05-02T06:38:33.314Z,48.73
2019-05-02T06:40:33.329Z,48.63
2019-05-02T06:42:34.612Z,49.32
2019-05-02T06:44:33.225Z,48.71
2019-05-02T06:46:33.433Z,49.11
2019-05-02T06:48:33.184Z,48.91
2019-05-02T06:50:38.230Z,48.40
2019-05-02T06:52:34.641Z,48.40
2019-05-02T06:54:33.226Z,48.18
2019-05-02T06:56:33.117Z,48.38
2019-05-02T06:58:37.057Z,48.48
2019-05-02T07:00:38.464Z,48.15
2019-05-02T07:02:35.366Z,48.25
2019-05-02T07:04:32.987Z,48.56
2019-05-02T07:06:42.158Z,48.05
2019-05-02T07:08:34.035Z,48.15
2019-05-02T07:10:44.090Z,48.25
2019-05-02T07:12:33.908Z,48.23
2019-05-02T07:14:32.884Z,47.62
2019-05-02T07:16:38.611Z,47.39
2019-05-02T07:18:33.847Z,47.50
2019-05-02T07:20:35.125Z,48.00
2019-05-02T07:22:38.828Z,47.47
2019-05-02T07:25:45.274Z,47.02
2019-05-02T07:27:44.319Z,47.33
2019-05-02T07:29:44.312Z,47.20
2019-05-02T07:31:47.738Z,46.90
2019-05-02T07:33:44.268Z,46.88
2019-05-02T07:35:44.248Z,46.98
2019-05-02T07:37:48.791Z,46.98
2019-05-02T07:39:45.234Z,46.55
2019-05-02T07:41:44.199Z,46.02
2019-05-02T07:43:44.159Z,45.79
2019-05-02T07:45:45.450Z,45.98
2019-05-02T07:47:44.123Z,45.79
2019-05-02T07:49:44.077Z,45.39
2019-05-02T07:51:44.090Z,46.71
2019-05-02T07:53:44.438Z,46.10
2019-05-02T07:55:44.014Z,45.78
2019-05-02T07:57:44.021Z,45.98
2019-05-02T07:59:43.986Z,45.98
2019-05-02T08:01:44.959Z,46.61
2019-05-02T08:03:44.930Z,47.11
2019-05-02T08:05:43.939Z,46.51
2019-05-02T08:07:43.919Z,46.41
2019-05-02T08:09:44.192Z,46.61
2019-05-02T08:11:43.866Z,46.61
2019-05-02T08:13:43.835Z,47.03
2019-05-02T08:15:45.593Z,46.75
2019-05-02T08:17:53.211Z,47.46
2019-05-02T08:19:44.763Z,47.64
2019-05-02T08:21:43.788Z,47.26
2019-05-02T08:23:43.749Z,47.56
2019-05-02T08:25:45.400Z,47.38
2019-05-02T08:27:43.683Z,47.69
2019-05-02T08:29:43.651Z,47.94
2019-05-02T08:31:43.638Z,48.32
2019-05-02T08:33:43.620Z,47.74
2019-05-02T08:35:43.607Z,47.91
2019-05-02T08:37:43.575Z,47.83
2019-05-02T08:39:43.604Z,48.24
2019-05-02T08:41:43.521Z,47.91
2019-05-02T08:43:44.841Z,47.43
2019-05-02T08:45:43.569Z,47.71
2019-05-02T08:47:43.466Z,47.33
2019-05-02T08:49:43.462Z,47.71
2019-05-02T08:51:43.416Z,47.41
2019-05-02T08:53:43.405Z,47.08
2019-05-02T08:55:45.317Z,47.03
2019-05-02T08:57:43.346Z,46.73
2019-05-02T08:59:43.352Z,46.81
2019-05-02T09:01:44.700Z,46.08
2019-05-02T09:03:55.325Z,46.06
2019-05-02T09:05:45.998Z,45.75
2019-05-02T09:07:43.427Z,46.06
2019-05-02T09:09:43.241Z,45.96
2019-05-02T09:11:48.260Z,45.12
2019-05-02T09:13:46.038Z,45.51
2019-05-02T09:15:49.633Z,45.08
2019-05-02T09:17:51.647Z,45.57
2019-05-02T09:19:44.119Z,44.54
2019-05-02T09:21:43.103Z,43.51
2019-05-02T09:23:43.981Z,43.89
2019-05-02T09:25:43.167Z,44.17
2019-05-02T09:27:43.040Z,43.97
2019-05-02T09:29:45.894Z,43.65
2019-05-02T09:31:46.089Z,44.25
2019-05-02T09:33:46.762Z,44.35
2019-05-02T09:35:42.942Z,44.45
2019-05-02T09:37:42.934Z,44.47
2019-05-02T09:39:42.915Z,44.05
2019-05-02T09:41:42.876Z,44.45
2019-05-02T09:43:42.893Z,43.91
2019-05-02T09:45:43.929Z,43.34
2019-05-02T09:47:56.681Z,42.69
2019-05-02T09:49:49.178Z,41.65
2019-05-02T09:51:45.575Z,41.65
2019-05-02T09:53:43.310Z,42.24
2019-05-02T09:55:50.376Z,41.51
2019-05-02T09:57:43.726Z,41.19
2019-05-02T09:59:50.439Z,40.95
2019-05-02T10:01:43.665Z,41.15
2019-05-02T10:03:42.655Z,41.15
2019-05-02T10:05:43.206Z,41.66
2019-05-02T10:07:42.619Z,41.35
2019-05-02T10:09:42.598Z,41.55
2019-05-02T10:11:42.564Z,41.96
2019-05-02T10:13:42.550Z,42.88
2019-05-02T10:15:42.517Z,43.19
2019-05-02T10:17:46.374Z,42.99
2019-05-02T10:19:48.791Z,43.32
2019-05-02T10:21:50.155Z,43.24
2019-05-02T10:23:43.706Z,43.44
2019-05-02T10:25:46.646Z,43.74
2019-05-02T10:27:46.021Z,43.72
2019-05-02T10:29:42.391Z,43.62
2019-05-02T10:31:42.639Z,43.60
2019-05-02T10:33:42.323Z,43.40
2019-05-02T10:35:43.373Z,42.57
2019-05-02T10:37:43.074Z,41.74
2019-05-02T10:39:42.391Z,42.10
2019-05-02T10:41:43.782Z,41.49
2019-05-02T10:43:42.454Z,41.05
2019-05-02T10:45:42.631Z,39.80
2019-05-02T10:47:42.394Z,39.94
2019-05-02T10:49:42.674Z,40.95
2019-05-02T10:51:48.992Z,40.40
2019-05-02T10:53:47.099Z,41.82
2019-05-02T10:55:43.116Z,41.31
2019-05-02T10:57:42.206Z,41.09
2019-05-02T10:59:42.205Z,41.41
2019-05-02T11:01:42.023Z,41.41
2019-05-02T11:03:43.728Z,41.19
2019-05-02T11:05:42.999Z,41.82
2019-05-02T11:07:42.069Z,41.52
2019-05-02T11:09:42.076Z,41.60
2019-05-02T11:11:42.510Z,41.82
2019-05-02T11:13:42.593Z,40.38
2019-05-02T11:15:41.943Z,40.88
2019-05-02T11:17:42.333Z,41.50
2019-05-02T11:19:42.041Z,41.39
2019-05-02T11:21:53.545Z,42.21
2019-05-02T11:23:42.841Z,41.58
2019-05-02T11:25:42.209Z,41.75
2019-05-02T11:27:41.956Z,40.24
2019-05-02T11:29:42.514Z,41.09
2019-05-02T11:31:42.744Z,40.48
2019-05-02T11:33:41.905Z,39.47
2019-05-02T11:35:49.094Z,40.54
2019-05-02T11:37:42.638Z,40.64
2019-05-02T11:39:46.567Z,40.26
2019-05-02T11:41:42.596Z,40.36
2019-05-02T11:43:44.870Z,40.58
2019-05-02T11:45:42.461Z,41.79
2019-05-02T11:47:42.306Z,41.60
2019-05-02T11:49:42.544Z,41.06
2019-05-02T11:51:42.491Z,40.34
2019-05-02T11:53:42.014Z,40.74
2019-05-02T11:55:43.734Z,40.05
2019-05-02T11:57:42.562Z,41.14
2019-05-02T11:59:42.508Z,41.24
2019-05-02T12:01:42.645Z,41.04
2019-05-02T12:03:42.296Z,41.24
2019-05-02T12:05:41.970Z,41.24
2019-05-02T12:07:41.804Z,40.03
2019-05-02T12:09:44.308Z,41.25
2019-05-02T12:11:42.275Z,41.77
2019-05-02T12:13:42.796Z,41.66
2019-05-02T12:15:43.558Z,41.47
2019-05-02T12:17:41.960Z,41.25
2019-05-02T12:19:42.591Z,41.36
2019-05-02T12:21:41.960Z,41.97
2019-05-02T12:23:41.805Z,41.99
2019-05-02T12:25:42.289Z,42.81
2019-05-02T12:27:42.508Z,43.01
2019-05-02T12:29:42.363Z,42.73
2019-05-02T12:31:42.702Z,43.33
2019-05-02T12:33:42.680Z,42.73
2019-05-02T12:35:43.039Z,43.35
2019-05-02T12:37:42.401Z,42.25
2019-05-02T12:39:42.526Z,42.75
2019-05-02T12:41:42.180Z,42.21
2019-05-02T12:43:41.642Z,41.28
2019-05-02T12:45:42.086Z,41.46
2019-05-02T12:47:42.729Z,40.62
2019-05-02T12:49:42.444Z,40.52
2019-05-02T12:51:42.742Z,41.53
2019-05-02T12:53:41.805Z,42.37
2019-05-02T12:55:42.134Z,42.41
2019-05-02T12:57:42.729Z,42.73
2019-05-02T12:59:41.680Z,42.11
2019-05-02T13:01:42.172Z,42.29
2019-05-02T13:03:40.704Z,42.17
2019-05-02T13:05:42.500Z,42.05
2019-05-02T13:07:42.794Z,42.37
2019-05-02T13:09:42.095Z,42.07
2019-05-02T13:11:42.286Z,41.24
2019-05-02T13:13:41.916Z,41.61
2019-05-02T13:15:42.379Z,40.68
2019-05-02T13:17:43.889Z,40.94
2019-05-02T13:19:55.186Z,40.42
2019-05-02T13:21:43.067Z,40.31
2019-05-02T13:23:42.387Z,40.33
2019-05-02T13:25:42.339Z,40.15
2019-05-02T13:27:46.069Z,41.38
2019-05-02T13:29:42.850Z,42.31
2019-05-02T13:31:40.396Z,42.85
2019-05-02T13:33:40.384Z,42.45
2019-05-02T13:35:42.167Z,42.13
2019-05-02T13:37:42.313Z,42.35
2019-05-02T13:39:41.923Z,42.75
2019-05-02T13:41:40.290Z,42.35
2019-05-02T13:43:41.871Z,42.63
2019-05-02T13:45:41.914Z,43.02
2019-05-02T13:47:40.233Z,42.33
2019-05-02T13:49:51.392Z,42.75
2019-05-02T13:51:42.602Z,42.75
2019-05-02T13:53:40.175Z,42.47
2019-05-02T13:55:40.134Z,42.55
2019-05-02T13:57:43.009Z,42.57
2019-05-02T13:59:41.657Z,42.27
2019-05-02T14:01:40.066Z,42.77
2019-05-02T14:03:41.972Z,42.55
2019-05-02T14:05:45.959Z,42.85
2019-05-02T14:07:42.866Z,42.55
2019-05-02T14:09:40.024Z,42.86
2019-05-02T14:11:41.644Z,42.86
2019-05-02T14:13:39.935Z,43.49
2019-05-02T14:15:41.951Z,43.41
2019-05-02T14:17:39.917Z,43.52
2019-05-02T14:19:41.920Z,44.35
2019-05-02T14:21:39.864Z,44.38
2019-05-02T14:23:41.900Z,45.13
2019-05-02T14:25:39.805Z,46.15
2019-05-02T14:27:42.023Z,46.37
2019-05-02T14:29:39.779Z,46.72
2019-05-02T14:31:39.743Z,47.86
2019-05-02T14:33:39.737Z,47.71
2019-05-02T14:35:39.702Z,48.43
2019-05-02T14:37:39.674Z,48.38
2019-05-02T14:39:41.536Z,49.10
2019-05-02T14:41:43.934Z,48.93
2019-05-02T14:43:44.535Z,48.97
2019-05-02T14:45:43.323Z,48.87
2019-05-02T14:47:39.580Z,50.02
2019-05-02T14:49:39.549Z,50.05
2019-05-02T14:51:41.635Z,49.16
2019-05-02T14:53:39.511Z,49.59
2019-05-02T14:55:39.498Z,49.79
2019-05-02T14:57:39.462Z,50.32
2019-05-02T14:59:39.453Z,50.24
2019-05-02T15:01:39.416Z,50.37
2019-05-02T15:03:39.420Z,50.07
2019-05-02T15:05:39.433Z,50.07
2019-05-02T15:07:39.356Z,50.29
2019-05-02T15:09:39.335Z,50.78
2019-05-02T15:11:39.343Z,49.56
2019-05-02T15:13:41.059Z,49.46
2019-05-02T15:15:42.921Z,49.16
2019-05-02T15:17:39.255Z,49.46
2019-05-02T15:19:39.224Z,49.46
2019-05-02T15:21:39.225Z,49.46
2019-05-02T15:23:39.200Z,49.58
2019-05-02T15:25:39.176Z,49.58
2019-05-02T15:27:42.351Z,49.69
2019-05-02T15:29:42.040Z,50.09
2019-05-02T15:31:39.107Z,49.99
2019-05-02T15:33:39.092Z,49.81
2019-05-02T15:35:39.079Z,50.52
2019-05-02T15:37:39.036Z,50.32
2019-05-02T15:41:40.029Z,50.42
2019-05-02T15:43:39.190Z,50.52
2019-05-02T15:45:43.544Z,50.34
2019-05-02T15:47:41.565Z,50.64
2019-05-02T15:49:41.673Z,50.44
2019-05-02T15:51:43.628Z,50.44
2019-05-02T15:53:44.700Z,50.14
2019-05-02T15:55:42.139Z,50.37
2019-05-02T15:57:43.579Z,50.26
2019-05-02T15:59:44.902Z,50.57
2019-05-02T16:01:41.219Z,50.87
2019-05-02T16:03:43.061Z,50.26
2019-05-02T16:05:41.248Z,50.29
2019-05-02T16:07:43.361Z,50.99
2019-05-02T16:09:41.519Z,50.79
2019-05-02T16:11:38.682Z,51.62
2019-05-02T16:13:38.681Z,51.25
2019-05-02T16:15:38.625Z,51.27
2019-05-02T16:17:38.607Z,51.37
2019-05-02T16:19:38.603Z,51.39
2019-05-02T16:21:38.556Z,51.09
2019-05-02T16:23:38.546Z,52.00
2019-05-02T16:25:38.536Z,50.68
2019-05-02T16:27:38.492Z,50.26
2019-05-02T16:29:38.493Z,50.56
2019-05-02T16:31:38.453Z,50.56
2019-05-02T16:33:38.441Z,50.56
2019-05-02T16:35:38.427Z,50.89
2019-05-02T16:37:38.387Z,51.52
2019-05-02T16:39:42.645Z,51.75
2019-05-02T16:42:02.399Z,51.14
2019-05-02T16:44:52.287Z,50.93
2019-05-02T16:46:52.123Z,51.95
2019-05-02T16:49:13.449Z,51.67
2019-05-02T16:50:59.745Z,51.39
2019-05-02T17:00:37.173Z,52.12
2019-05-02T17:02:08.033Z,52.66
2019-05-02T17:04:19.409Z,52.15
2019-05-02T17:06:05.016Z,52.35
2019-05-02T17:08:25.952Z,51.97
2019-05-02T17:10:23.495Z,52.68
2019-05-02T17:20:19.502Z,52.71
2019-05-02T17:26:01.604Z,52.48
2019-05-02T17:27:42.401Z,52.50
2019-05-02T17:29:43.274Z,53.52
2019-05-02T17:31:43.211Z,53.22
2019-05-02T17:34:53.744Z,53.04
2019-05-02T17:36:53.724Z,53.55
2019-05-02T17:38:54.493Z,53.75
2019-05-02T17:40:54.502Z,53.14
2019-05-02T17:42:57.130Z,53.34
2019-05-02T17:44:59.262Z,53.44
2019-05-02T17:46:58.225Z,53.34
2019-05-02T17:48:54.619Z,53.04
2019-05-02T17:50:55.968Z,53.06
2019-05-02T17:52:56.088Z,53.78
2019-05-02T17:54:57.487Z,53.06
2019-05-02T17:56:57.394Z,53.09
2019-05-02T17:58:57.882Z,53.06
2019-05-02T18:00:56.160Z,53.27
2019-05-02T18:02:53.456Z,53.27
2019-05-02T18:04:55.797Z,53.37
2019-05-02T18:06:55.122Z,53.16
2019-05-02T18:08:55.285Z,53.06
2019-05-02T18:10:58.544Z,53.16
2019-05-02T18:12:58.238Z,53.27
2019-05-02T18:14:59.129Z,53.37
2019-05-02T18:16:55.621Z,53.16
2019-05-02T18:18:53.295Z,53.27
2019-05-02T18:20:53.275Z,53.27
2019-05-02T18:22:53.253Z,53.37
2019-05-02T18:24:53.253Z,53.04
2019-05-02T18:26:53.208Z,53.04
2019-05-02T18:28:57.099Z,53.34
2019-05-02T18:30:57.098Z,53.06
2019-05-02T18:32:57.697Z,53.06
2019-05-02T18:34:56.902Z,53.06
2019-05-02T18:36:57.364Z,53.37
2019-05-02T18:39:00.177Z,53.27
2019-05-02T18:40:55.411Z,53.78
2019-05-02T18:42:56.502Z,53.37
2019-05-02T18:44:54.568Z,53.39
2019-05-02T18:46:52.982Z,53.98
2019-05-02T18:48:52.961Z,53.70
2019-05-02T18:50:52.938Z,53.59
2019-05-02T18:52:52.920Z,53.78
2019-05-02T18:54:52.896Z,53.98
2019-05-02T18:56:55.303Z,54.08
2019-05-02T18:58:53.579Z,54.18
2019-05-02T19:00:52.808Z,53.57
2019-05-02T19:02:54.625Z,53.80
2019-05-02T19:04:52.783Z,53.78
2019-05-02T19:06:52.768Z,54.21
2019-05-02T19:08:52.727Z,53.80
2019-05-02T19:11:04.603Z,53.80
2019-05-02T19:12:56.193Z,53.80
2019-05-02T19:14:57.542Z,53.98
2019-05-02T19:16:58.010Z,53.37
2019-05-02T19:18:57.290Z,53.98
2019-05-02T19:20:57.532Z,53.98
2019-05-02T19:22:56.777Z,53.70
2019-05-02T19:24:52.557Z,54.00
2019-05-02T19:26:53.388Z,54.11
2019-05-02T19:28:52.509Z,53.59
2019-05-02T19:30:52.484Z,53.50
2019-05-02T19:32:52.477Z,53.59
2019-05-02T19:34:53.154Z,54.21
2019-05-02T19:36:53.000Z,53.90
2019-05-02T19:38:52.565Z,54.11
2019-05-02T19:40:52.372Z,54.00
2019-05-02T19:42:52.731Z,54.00
2019-05-02T19:44:52.766Z,54.00
2019-05-02T19:46:52.309Z,54.00
2019-05-02T19:48:52.318Z,53.90
2019-05-02T19:50:52.280Z,54.51
2019-05-02T19:53:01.047Z,54.00
2019-05-02T19:54:53.213Z,54.51
2019-05-02T19:56:52.551Z,54.11
2019-05-02T19:58:52.293Z,54.61
2019-05-02T20:00:52.592Z,54.64
2019-05-02T20:02:52.318Z,54.11
2019-05-02T20:04:52.122Z,54.13
2019-05-02T20:06:52.082Z,54.31
2019-05-02T20:08:54.460Z,54.11
2019-05-02T20:10:56.866Z,54.74
2019-05-02T20:12:53.033Z,54.61
2019-05-02T20:14:51.996Z,53.59
2019-05-02T20:16:52.840Z,53.70
2019-05-02T20:18:52.546Z,53.70
2019-05-02T20:20:52.080Z,54.54
2019-05-02T20:22:52.411Z,53.80
2019-05-02T20:24:55.328Z,53.70
2019-05-02T20:26:56.134Z,53.50
2019-05-02T20:28:52.773Z,53.59
2019-05-02T20:30:52.659Z,53.59
2019-05-02T20:32:51.841Z,53.80
2019-05-02T20:34:51.792Z,53.59
2019-05-02T20:36:51.938Z,53.70
2019-05-02T20:38:52.544Z,54.21
2019-05-02T20:40:52.268Z,54.00
2019-05-02T20:42:52.748Z,54.00
2019-05-02T20:44:52.797Z,54.11
2019-05-02T20:46:51.739Z,54.51
2019-05-02T20:50:59.829Z,53.42
2019-05-02T20:52:52.404Z,53.96
2019-05-02T20:54:52.344Z,53.96
2019-05-02T20:56:52.065Z,53.96
2019-05-02T20:58:52.649Z,53.96
2019-05-02T21:01:04.776Z,53.96
2019-05-02T21:02:53.033Z,54.26
2019-05-02T21:04:52.301Z,54.79
2019-05-02T21:13:07.227Z,54.74
2019-05-02T21:15:28.599Z,54.85
2019-05-02T21:17:45.683Z,55.28
2019-05-02T21:19:06.129Z,55.08
2019-05-02T21:21:12.587Z,55.30
2019-05-02T21:23:26.160Z,55.30
2019-05-02T21:25:05.345Z,55.43
2019-05-02T21:27:27.110Z,55.84
2019-05-02T21:29:03.991Z,55.66
2019-05-02T21:31:03.926Z,55.46
2019-05-02T21:33:03.917Z,56.00
2019-05-02T21:35:03.898Z,55.58
2019-05-02T21:37:04.085Z,55.79
2019-05-02T21:39:03.857Z,55.82
2019-05-02T21:41:03.831Z,56.02
2019-05-02T21:43:03.999Z,55.92
2019-05-02T21:45:03.804Z,56.02
2019-05-02T21:47:05.895Z,56.15
2019-05-02T21:49:04.127Z,55.74
2019-05-02T21:51:03.736Z,55.74
2019-05-02T21:53:03.698Z,55.85
2019-05-02T21:55:03.684Z,55.74
2019-05-02T21:57:03.645Z,55.94
2019-05-02T21:59:03.650Z,55.66
2019-05-02T22:01:03.605Z,55.87
2019-05-02T22:03:03.586Z,55.87
2019-05-02T22:05:03.567Z,55.87
2019-05-02T22:07:03.533Z,55.98
2019-05-02T22:09:03.512Z,55.90
2019-05-02T22:11:03.505Z,55.79
2019-05-02T22:13:03.478Z,56.41
2019-05-02T22:15:03.463Z,55.79
2019-05-02T22:17:03.433Z,56.23
2019-05-02T22:19:03.412Z,55.79
2019-05-02T22:21:03.398Z,55.69
2019-05-02T22:23:03.368Z,56.23
2019-05-02T22:25:03.345Z,56.41
2019-05-02T22:27:03.331Z,56.20
2019-05-02T22:29:03.297Z,56.23
2019-05-02T22:31:03.403Z,55.90
2019-05-02T22:33:03.255Z,56.02
2019-05-02T22:35:03.240Z,55.79
2019-05-02T22:37:03.251Z,55.69
2019-05-02T22:39:03.207Z,55.28
2019-05-02T22:41:03.616Z,55.59
2019-05-02T22:43:04.616Z,55.26
2019-05-02T22:45:04.532Z,55.38
2019-05-02T22:47:03.127Z,54.87
2019-05-02T22:49:03.083Z,55.59
2019-05-02T22:51:03.068Z,55.28
2019-05-02T22:53:03.058Z,55.49
2019-05-02T22:55:03.097Z,55.00
2019-05-02T22:57:03.002Z,55.28
2019-05-02T22:59:02.988Z,55.82
2019-05-02T23:01:02.965Z,55.18
2019-05-02T23:03:02.948Z,55.49
2019-05-02T23:05:02.925Z,55.28
2019-05-02T23:07:02.889Z,55.79
2019-05-02T23:09:02.888Z,55.59
2019-05-02T23:11:03.524Z,55.38
2019-05-02T23:13:02.824Z,55.08
2019-05-02T23:15:02.818Z,55.28
2019-05-02T23:17:02.795Z,55.66
2019-05-02T23:19:02.889Z,54.85
2019-05-02T23:21:02.780Z,54.33
2019-05-02T23:23:02.726Z,54.74
2019-05-02T23:25:02.949Z,54.53
2019-05-02T23:27:02.687Z,54.61
2019-05-02T23:29:02.666Z,55.05
